Saturday, August 18, 2018, 8:27 PM EDT
Back to Local

KROC, Greater Rochester International

Location: Rochester, NY, United States Lat: 43.117
Local Time: 8:27 PM EDT ( 0:27 GMT) Lon: -77.683
Time Zone: US/Eastern Elev: 557 ft

Show me the last for .
Show Coded

Time T Td Feel RH Dir Speed Gust Alt SLP Vis Weather Sky Remarks
2018-08-18 19:54 69 63 - 80 330° 5 - 29.96 29.96 10 FEW028 FEW080 SCT160 BKN200 6-hr Min Temp (8pm): 69.1°F
6-hr Max Temp (8pm): 73.9°F
2018-08-18 18:54 71 63 76 75 340° 6 - 29.95 29.96 10 FEW028 SCT140 OVC200 None
2018-08-18 17:54 73 62 77 68 350° 5 - 29.95 29.95 10 FEW028 SCT045 BKN200 None
2018-08-18 16:54 73 61 77 65 360° 12 - 29.95 29.95 10 FEW028 BKN035 BKN170 None
2018-08-18 16:01 73 61 77 65 10° 12 - 29.96 - 10 FEW028 BKN035 BKN120 None
2018-08-18 15:54 73 62 77 68 30° 10 - 29.96 29.96 10 FEW020 BKN028 BKN120 None
2018-08-18 14:54 73 62 77 68 40° 12 - 29.96 29.96 10 SCT024 BKN028 None
2018-08-18 13:54 71 64 76 78 20° 15 - 29.96 29.96 10 BKN019 OVC025 6-hr Precip Total (2pm): 0.02"
6-hr Min Temp (2pm): 68.0°F
6-hr Max Temp (2pm): 71.1°F
2018-08-18 13:01 69 63 - 80 50° 12 - 29.96 - 10 OVC018 None
2018-08-18 12:54 69 63 - 80 30° 13 - 29.96 29.96 10 BKN014 OVC021 None
2018-08-18 11:54 69 65 - 86 40° 12 - 29.95 29.95 10 BKN014 OVC021 None
2018-08-18 11:41 69 65 - 86 20° 12 - 29.95 - 10 BKN014 OVC021 None
2018-08-18 10:54 70 66 - 87 30° 14 - 29.95 29.94 10 SCT014 OVC023 6-hr Precip Total (11am): 0.02"
2018-08-18 09:54 69 66 - 90 20° 10 - 29.93 29.93 10 SCT014 BKN021 OVC110 1-hr Precip Total: Trace
2018-08-18 08:54 68 66 - 93 30° 7 - 29.93 29.93 10 -RA OVC018 1-hr Precip Total: 0.02"
2018-08-18 08:26 68 66 - 93 30° 6 - 29.93 - 10 -RA BKN018 BKN100 OVC110 1-hr Precip Total: 0.01"
2018-08-18 08:01 68 66 - 93 40° 9 - 29.93 - 10 -RA FEW015 SCT024 OVC110 1-hr Precip Total: Trace
2018-08-18 07:54 68 66 - 93 40° 9 - 29.93 29.93 9 -RA FEW015 BKN024 OVC110 1-hr Precip Total: Trace
6-hr Precip Total (8am): 0.45"
24-hr Precip Total (8am): 0.50"
6-hr Min Temp (8am): 66.9°F
6-hr Max Temp (8am): 71.1°F
2018-08-18 07:47 68 66 - 93 40° 8 - 29.93 - 9 -RA SCT014 BKN024 OVC110 1-hr Precip Total: Trace
2018-08-18 06:54 68 67 - 96 20° 9 - 29.92 29.91 10 -RA SCT007 BKN013 OVC065 1-hr Precip Total: 0.01"
2018-08-18 06:47 68 67 - 96 20° 8 - 29.91 - 10 -RA SCT007 BKN013 OVC065 1-hr Precip Total: 0.01"
2018-08-18 06:05 67 66 - 96 - Calm - 29.91 - 10 -RA FEW007 BKN075 OVC100 1-hr Precip Total: Trace
2018-08-18 05:54 67 66 - 96 120° 3 - 29.91 29.90 9 -RA FEW013 SCT075 BKN100 1-hr Precip Total: 0.05"
2018-08-18 04:54 67 66 - 96 60° 7 - 29.91 29.90 10 -RA FEW007 BKN070 BKN110 1-hr Precip Total: 0.20"
6-hr Precip Total (5am): 0.39"
2018-08-18 04:44 67 66 - 96 60° 7 - 29.91 - 10 -RA FEW007 SCT013 OVC070 1-hr Precip Total: 0.20"
2018-08-18 04:02 67 67 - 100 40° 5 - 29.91 - 4 -RA BR FEW008 BKN013 OVC040 1-hr Precip Total: 0.04"
2018-08-18 03:58 66 66 - 100 50° 5 - 29.91 - 3 -RA BR SCT013 BKN021 OVC038 None
2018-08-18 03:54 67 67 - 100 50° 7 - 29.91 29.90 2 -RA BR FEW013 SCT021 OVC038 1-hr Precip Total: 0.11"
2018-08-18 03:50 66 66 - 100 40° 8 - 29.91 - 3 -RA BR FEW013 BKN021 OVC036 1-hr Precip Total: 0.06"
2018-08-18 02:54 68 66 - 93 60° 13 - 29.90 29.90 9 -RA FEW018 BKN035 OVC100 1-hr Precip Total: 0.08"
2018-08-18 02:50 68 66 - 93 50° 14 - 29.90 - 9 -RA SCT018 BKN035 OVC100 1-hr Precip Total: 0.08"
2018-08-18 02:27 69 67 - 92 50° 15 - 29.90 - 10 -RA FEW007 BKN017 OVC036 1-hr Precip Total: 0.06"
2018-08-18 02:09 70 69 - 96 40° 15 - 29.90 - 6 -RA BR SCT008 BKN013 OVC019 1-hr Precip Total: 0.04"
2018-08-18 01:54 71 69 76 93 30° 13 - 29.90 29.89 6 -RA BR OVC011 1-hr Precip Total: 0.04"
6-hr Precip Total (2am): 0.04"
6-hr Min Temp (2am): 71.1°F
6-hr Max Temp (2am): 78.1°F
2018-08-18 01:26 73 71 77 93 20° 13 - 29.90 - 10 -RA OVC009 1-hr Precip Total: 0.01"
2018-08-18 00:54 73 71 77 93 320° 6 - 29.90 29.88 10 SCT007 BKN027 OVC042 24-hr Min Temp (1am): 70.0°F
24-hr Max Temp (1am): 82.9°F
2018-08-17 23:54 74 70 78 87 290° 6 - 29.90 29.90 10 SCT041 BKN100 BKN170 None
2018-08-17 22:54 76 70 80 81 270° 13 18 29.90 29.88 10 BKN110 BKN170 None
2018-08-17 22:22 75 71 79 87 260° 7 - 29.90 - 10 SCT026 SCT033 BKN120 BKN170 None
2018-08-17 21:54 75 71 79 87 240° 7 - 29.91 29.90 10 BKN029 BKN110 None
2018-08-17 20:54 76 70 80 81 250° 8 - 29.89 29.89 10 BKN050 BKN100 None

Support USWX by starting your Amazon purchase here.